Time;durP1;ratioP1;P1;durP2;ratioP2;P2;SDS_P1;SDS_P2;PMS_P1;PMS_P2;Temp;Humidity;BMP_temperature;BMP_pressure;BME280_temperature;BME280_humidity;BME280_pressure;Samples;Min_cycle;Max_cycle;Signal;HPM_P1;HPM_P2
2021/07/12 00:00:38;;;;;;;4.03;2.67;;;17.10;99.90;;;;;;5033783;28;20881;-56
2021/07/12 00:03:07;;;;;;;3.50;3.20;;;17.10;99.90;;;;;;5032882;28;20530;-57
2021/07/12 00:05:35;;;;;;;5.23;2.90;;;17.10;99.90;;;;;;5033405;28;20479;-57
2021/07/12 00:08:02;;;;;;;2.83;2.63;;;17.00;99.90;;;;;;5033494;28;20456;-57
2021/07/12 00:10:30;;;;;;;3.13;2.83;;;17.00;99.90;;;;;;5032320;28;20448;-56
2021/07/12 00:12:58;;;;;;;3.20;3.00;;;17.00;99.90;;;;;;5032661;28;21004;-56
2021/07/12 00:15:27;;;;;;;4.13;2.97;;;17.00;99.90;;;;;;5033586;28;20534;-56
2021/07/12 00:17:54;;;;;;;6.47;3.00;;;17.00;99.90;;;;;;5038843;28;20525;-57
2021/07/12 00:20:23;;;;;;;4.10;2.87;;;17.00;99.90;;;;;;5037714;28;21192;-56
2021/07/12 00:22:53;;;;;;;3.30;3.00;;;17.00;99.90;;;;;;5032551;28;20476;-57
2021/07/12 00:25:22;;;;;;;2.93;2.73;;;16.90;99.90;;;;;;5033233;28;20511;-56
2021/07/12 00:27:49;;;;;;;3.70;3.40;;;16.90;99.90;;;;;;5032222;28;20460;-56
2021/07/12 00:30:19;;;;;;;6.17;2.80;;;16.90;99.90;;;;;;5021043;28;20453;-57
2021/07/12 00:32:47;;;;;;;3.10;2.87;;;16.90;99.90;;;;;;5028856;28;20962;-56
2021/07/12 00:35:16;;;;;;;4.63;3.20;;;16.80;99.90;;;;;;5033227;28;20475;-57
2021/07/12 00:37:44;;;;;;;3.53;3.10;;;16.80;99.90;;;;;;5032826;28;20456;-56
2021/07/12 00:40:15;;;;;;;3.47;3.17;;;16.80;99.90;;;;;;5033387;28;20538;-56
2021/07/12 00:42:42;;;;;;;3.53;3.23;;;16.60;99.90;;;;;;5031892;28;20480;-57
2021/07/12 00:45:12;;;;;;;3.30;3.00;;;16.60;99.90;;;;;;5031201;28;20473;-56
2021/07/12 00:47:39;;;;;;;3.70;3.40;;;16.60;99.90;;;;;;5032780;28;20449;-56
2021/07/12 00:50:08;;;;;;;3.03;2.83;;;16.40;99.90;;;;;;5033168;28;20449;-56
2021/07/12 00:52:35;;;;;;;3.70;3.40;;;16.40;99.90;;;;;;5032871;28;20448;-56
2021/07/12 00:55:13;;;;;;;3.77;3.30;;;16.50;99.90;;;;;;5033095;28;20472;-56
2021/07/12 00:57:40;;;;;;;5.00;3.67;;;16.50;99.90;;;;;;5032656;28;20835;-57
2021/07/12 01:00:09;;;;;;;5.70;2.70;;;16.50;99.90;;;;;;5033234;28;20483;-56
2021/07/12 01:02:36;;;;;;;6.57;3.30;;;16.50;99.90;;;;;;5032285;28;20480;-57
2021/07/12 01:05:05;;;;;;;3.87;3.47;;;16.40;99.90;;;;;;5033049;28;20476;-56
2021/07/12 01:07:32;;;;;;;7.33;3.20;;;16.40;99.90;;;;;;5032650;28;20518;-57
2021/07/12 01:09:59;;;;;;;5.40;3.40;;;16.40;99.90;;;;;;5031984;28;20445;-56
2021/07/12 01:12:33;;;;;;;3.50;3.20;;;16.40;99.90;;;;;;5032331;28;20866;-56
2021/07/12 01:15:06;;;;;;;3.70;3.40;;;16.40;99.90;;;;;;5032259;28;20452;-57
2021/07/12 01:17:41;;;;;;;6.07;3.47;;;16.40;99.90;;;;;;5032793;28;20456;-56
2021/07/12 01:20:41;;;;;;;4.80;3.90;;;16.30;99.90;;;;;;5032906;28;20448;-56
2021/07/12 01:23:23;;;;;;;3.07;2.77;;;16.30;99.90;;;;;;5032024;28;21017;-56
2021/07/12 01:26:23;;;;;;;4.50;3.40;;;16.20;99.90;;;;;;5032156;28;20985;-57
2021/07/12 01:29:10;;;;;;;5.37;3.53;;;16.10;99.90;;;;;;5032948;28;20776;-56
2021/07/12 01:32:26;;;;;;;3.40;3.10;;;15.90;99.90;;;;;;5032138;28;20448;-57
2021/07/12 01:35:03;;;;;;;9.33;3.60;;;16.00;99.90;;;;;;5032037;28;20448;-56
2021/07/12 01:37:36;;;;;;;4.67;3.50;;;16.00;99.90;;;;;;5032359;28;20518;-56
2021/07/12 01:40:05;;;;;;;3.77;3.40;;;15.90;99.90;;;;;;5032292;28;20448;-57
2021/07/12 01:42:38;;;;;;;5.90;3.10;;;15.90;99.90;;;;;;5031944;28;20558;-56
2021/07/12 01:45:10;;;;;;;5.40;3.30;;;15.90;99.90;;;;;;5031814;28;20989;-56
2021/07/12 01:47:44;;;;;;;3.60;3.30;;;15.90;99.90;;;;;;5032169;28;20448;-56
2021/07/12 01:50:23;;;;;;;7.20;3.80;;;15.90;99.90;;;;;;5031770;28;20889;-56
2021/07/12 01:53:02;;;;;;;3.67;3.27;;;15.90;99.90;;;;;;5031749;28;20424;-56
2021/07/12 01:55:37;;;;;;;3.63;3.20;;;15.90;99.90;;;;;;5031730;28;20479;-56
2021/07/12 01:58:11;;;;;;;8.33;4.30;;;15.90;99.90;;;;;;5032075;28;20457;-56
2021/07/12 02:00:41;;;;;;;3.80;3.50;;;15.70;99.90;;;;;;5031679;28;20539;-56
2021/07/12 02:03:11;;;;;;;4.07;3.60;;;15.70;99.90;;;;;;5031590;28;20562;-56
2021/07/12 02:05:41;;;;;;;4.77;3.40;;;15.70;99.90;;;;;;5031562;28;20468;-56
2021/07/12 02:08:10;;;;;;;4.73;3.53;;;15.70;99.90;;;;;;5031783;28;20448;-56
2021/07/12 02:10:38;;;;;;;4.70;3.77;;;15.70;99.90;;;;;;5031147;28;20970;-56
2021/07/12 02:13:05;;;;;;;3.83;3.43;;;15.80;99.90;;;;;;5031550;28;20455;-56
2021/07/12 02:15:34;;;;;;;4.00;3.60;;;15.70;99.90;;;;;;5031359;28;20474;-56
2021/07/12 02:18:03;;;;;;;4.03;3.63;;;15.60;99.90;;;;;;5031951;28;20496;-56
2021/07/12 02:20:32;;;;;;;6.07;3.60;;;15.50;99.90;;;;;;5031545;28;20448;-56
2021/07/12 02:23:02;;;;;;;6.37;4.47;;;15.50;99.90;;;;;;5031122;28;21047;-56
2021/07/12 02:25:30;;;;;;;4.37;3.93;;;15.50;99.90;;;;;;5031631;28;20514;-56
2021/07/12 02:27:58;;;;;;;5.60;4.27;;;15.60;99.90;;;;;;5031554;28;21033;-56
2021/07/12 02:30:25;;;;;;;4.90;3.87;;;15.50;99.90;;;;;;5031408;28;20456;-56
2021/07/12 02:32:53;;;;;;;5.37;4.37;;;15.60;99.90;;;;;;5031301;28;20444;-56
2021/07/12 02:35:21;;;;;;;4.03;3.63;;;15.50;99.90;;;;;;5031468;28;20823;-56
2021/07/12 02:37:50;;;;;;;10.87;4.97;;;15.50;99.90;;;;;;5031697;28;20448;-56
2021/07/12 02:40:20;;;;;;;5.30;4.30;;;15.60;99.90;;;;;;5031236;28;20470;-56
2021/07/12 02:42:50;;;;;;;4.60;4.20;;;15.40;99.90;;;;;;5031112;28;20530;-56
2021/07/12 02:45:18;;;;;;;5.40;4.60;;;15.40;99.90;;;;;;5056400;22;20822;-50
2021/07/12 02:47:46;;;;;;;5.27;4.33;;;15.30;99.90;;;;;;5031231;28;20514;-49
2021/07/12 02:50:15;;;;;;;5.47;4.37;;;15.40;99.90;;;;;;5022894;28;20453;-50
2021/07/12 02:52:47;;;;;;;5.40;4.60;;;15.40;99.90;;;;;;5012214;28;20482;-50
2021/07/12 02:55:15;;;;;;;7.00;5.63;;;15.40;99.90;;;;;;5031302;28;20506;-50
2021/07/12 02:57:43;;;;;;;9.00;4.73;;;15.40;99.90;;;;;;5031241;28;20887;-49
2021/07/12 03:00:12;;;;;;;4.80;4.33;;;15.30;99.90;;;;;;5027167;28;20522;-50
2021/07/12 03:02:39;;;;;;;5.50;4.23;;;15.40;99.90;;;;;;5031010;28;20480;-49
2021/07/12 03:05:08;;;;;;;4.70;4.10;;;15.30;99.90;;;;;;5032621;28;20453;-50
2021/07/12 03:07:41;;;;;;;6.10;4.27;;;15.20;99.90;;;;;;5034949;28;20448;-50
2021/07/12 03:10:11;;;;;;;6.53;3.90;;;15.20;99.90;;;;;;5034447;28;20452;-50
2021/07/12 03:12:45;;;;;;;4.43;4.00;;;15.30;99.90;;;;;;5034973;28;20437;-50
2021/07/12 03:15:14;;;;;;;5.77;4.20;;;15.20;99.90;;;;;;5034764;28;20452;-50
2021/07/12 03:17:46;;;;;;;5.00;4.10;;;15.10;99.90;;;;;;5034969;28;20452;-50
2021/07/12 03:20:14;;;;;;;6.60;4.00;;;15.10;99.90;;;;;;5027315;28;21017;-50
2021/07/12 03:22:43;;;;;;;6.00;3.93;;;15.00;99.90;;;;;;5014492;28;20481;-50
2021/07/12 03:25:13;;;;;;;9.80;3.47;;;15.10;99.90;;;;;;5034395;28;20452;-49
2021/07/12 03:27:40;;;;;;;4.80;3.73;;;15.10;99.90;;;;;;5034794;28;20448;-50
2021/07/12 03:30:12;;;;;;;7.00;4.37;;;15.10;99.90;;;;;;5034031;28;20871;-50
2021/07/12 03:32:44;;;;;;;4.43;4.00;;;15.10;99.90;;;;;;5034472;28;20450;-49
2021/07/12 03:35:13;;;;;;;4.53;3.93;;;15.10;99.90;;;;;;5034040;28;20506;-50
2021/07/12 03:37:41;;;;;;;4.70;4.13;;;15.10;99.90;;;;;;5034705;28;20514;-50
2021/07/12 03:40:09;;;;;;;6.73;3.70;;;15.20;99.90;;;;;;5028227;28;20499;-50
2021/07/12 03:42:37;;;;;;;4.70;3.80;;;15.10;99.90;;;;;;5014430;28;20485;-50
2021/07/12 03:45:06;;;;;;;8.20;3.57;;;15.10;99.90;;;;;;5032284;28;20457;-49
2021/07/12 03:47:38;;;;;;;4.47;4.07;;;15.00;99.90;;;;;;5034314;28;20503;-50
2021/07/12 03:50:11;;;;;;;4.73;3.77;;;15.00;99.90;;;;;;5032534;28;20460;-49
2021/07/12 03:52:42;;;;;;;5.83;3.70;;;15.00;99.90;;;;;;5033073;28;20887;-50
2021/07/12 03:55:11;;;;;;;4.03;3.63;;;15.10;99.90;;;;;;5014859;28;20460;-49
2021/07/12 03:57:38;;;;;;;4.23;3.83;;;15.20;99.90;;;;;;5014469;28;20512;-49
2021/07/12 04:00:07;;;;;;;4.13;3.43;;;15.20;99.90;;;;;;5015417;28;20502;-48
2021/07/12 04:02:36;;;;;;;4.43;3.70;;;15.30;99.90;;;;;;5032095;28;20997;-50
2021/07/12 04:05:06;;;;;;;4.30;3.70;;;15.30;99.90;;;;;;5028011;28;20502;-49
2021/07/12 04:07:33;;;;;;;5.10;3.93;;;15.40;99.90;;;;;;5034106;28;20444;-50
2021/07/12 04:09:59;;;;;;;4.53;3.87;;;15.40;99.90;;;;;;5033089;28;20452;-50
2021/07/12 04:12:27;;;;;;;4.30;3.90;;;15.40;99.90;;;;;;5033766;28;20495;-50
2021/07/12 04:14:55;;;;;;;3.80;3.50;;;15.40;99.90;;;;;;5032681;28;20487;-49
2021/07/12 04:17:22;;;;;;;4.27;3.77;;;15.50;99.90;;;;;;5027945;28;20554;-49
2021/07/12 04:19:52;;;;;;;3.83;3.43;;;15.50;99.90;;;;;;5017148;28;20511;-49
2021/07/12 04:22:19;;;;;;;3.70;3.10;;;15.50;99.90;;;;;;5013707;28;20481;-50
2021/07/12 04:24:46;;;;;;;6.20;3.10;;;15.60;99.90;;;;;;5014828;28;20450;-49
2021/07/12 04:27:13;;;;;;;3.93;3.27;;;15.70;99.90;;;;;;5013695;28;20523;-49
2021/07/12 04:29:40;;;;;;;4.80;3.10;;;15.70;99.90;;;;;;5016601;28;20445;-49
2021/07/12 04:32:08;;;;;;;4.80;3.77;;;15.80;99.90;;;;;;5030099;28;20499;-50
2021/07/12 04:34:35;;;;;;;4.77;3.67;;;15.80;99.90;;;;;;5025402;28;20441;-49
2021/07/12 04:37:04;;;;;;;4.40;3.53;;;15.90;99.90;;;;;;5021821;28;20465;-49
2021/07/12 04:39:31;;;;;;;3.40;3.10;;;15.80;99.90;;;;;;5025927;28;20565;-49
2021/07/12 04:41:59;;;;;;;4.10;3.50;;;15.90;99.90;;;;;;5013380;28;20441;-49
2021/07/12 04:44:26;;;;;;;5.87;3.40;;;16.10;99.90;;;;;;5013679;28;20491;-49
2021/07/12 04:46:53;;;;;;;8.30;3.47;;;16.20;99.90;;;;;;5022854;28;20476;-50
2021/07/12 04:49:20;;;;;;;4.30;3.30;;;16.30;99.90;;;;;;5033307;28;20492;-49
2021/07/12 04:51:47;;;;;;;5.07;3.57;;;16.40;99.90;;;;;;5033048;28;20456;-49
2021/07/12 04:54:15;;;;;;;4.47;3.10;;;16.40;99.90;;;;;;5026031;28;20461;-49
2021/07/12 04:56:42;;;;;;;9.40;3.30;;;16.50;99.90;;;;;;5013080;28;20466;-50
2021/07/12 04:59:10;;;;;;;3.33;3.03;;;16.70;99.90;;;;;;5013626;28;20454;-49
2021/07/12 05:01:38;;;;;;;6.10;3.53;;;16.90;99.90;;;;;;5022921;28;20518;-49
2021/07/12 05:04:06;;;;;;;2.93;2.63;;;17.10;99.90;;;;;;5026080;28;20478;-49
2021/07/12 05:06:34;;;;;;;3.33;3.03;;;17.50;99.90;;;;;;5013031;28;20473;-49
2021/07/12 05:09:01;;;;;;;2.83;2.63;;;18.20;99.90;;;;;;5012911;28;20456;-48
2021/07/12 05:11:31;;;;;;;2.60;2.40;;;19.00;99.90;;;;;;5013937;28;20461;-49
2021/07/12 05:13:59;;;;;;;2.60;2.40;;;20.10;99.90;;;;;;5017786;28;20441;-49
2021/07/12 05:16:26;;;;;;;3.00;2.70;;;20.80;99.90;;;;;;5024184;28;20462;-50
2021/07/12 05:18:54;;;;;;;3.07;2.77;;;21.50;99.90;;;;;;5026232;28;20460;-49
2021/07/12 05:21:21;;;;;;;2.80;2.60;;;22.10;99.90;;;;;;5012806;28;20453;-49
2021/07/12 05:23:48;;;;;;;2.83;2.63;;;23.00;99.90;;;;;;5016255;28;20481;-48
2021/07/12 05:26:15;;;;;;;2.57;2.30;;;23.40;99.90;;;;;;5028737;28;20469;-50
2021/07/12 05:28:43;;;;;;;3.37;2.50;;;23.60;99.90;;;;;;5032210;28;20510;-50
2021/07/12 05:31:10;;;;;;;2.70;2.30;;;24.30;99.90;;;;;;5021820;28;20458;-51
2021/07/12 05:33:37;;;;;;;2.93;2.60;;;24.80;99.90;;;;;;5027171;28;20448;-50
2021/07/12 05:36:04;;;;;;;4.50;2.57;;;25.40;99.90;;;;;;5023555;28;20572;-50
2021/07/12 05:38:32;;;;;;;3.40;2.67;;;26.00;99.90;;;;;;5012485;28;20943;-51
2021/07/12 05:40:59;;;;;;;2.57;2.37;;;26.40;99.90;;;;;;5012643;28;20879;-50
2021/07/12 05:43:26;;;;;;;3.30;2.63;;;26.60;99.90;;;;;;5025638;28;20481;-50
2021/07/12 05:45:54;;;;;;;3.63;2.10;;;26.60;99.90;;;;;;5030231;28;20865;-50
2021/07/12 05:48:21;;;;;;;2.73;2.50;;;27.00;99.90;;;;;;5022568;28;20508;-50
2021/07/12 05:50:48;;;;;;;2.60;2.40;;;26.60;99.90;;;;;;5012891;28;20460;-50
2021/07/12 05:53:16;;;;;;;2.60;2.40;;;26.30;99.90;;;;;;5023771;28;20449;-50
2021/07/12 05:55:43;;;;;;;2.63;2.43;;;26.60;99.90;;;;;;5031884;28;21004;-50
2021/07/12 05:58:11;;;;;;;2.90;2.70;;;26.80;99.90;;;;;;5031473;28;20498;-50
2021/07/12 06:00:38;;;;;;;3.40;2.37;;;27.00;99.90;;;;;;5031071;28;20511;-50
2021/07/12 06:03:06;;;;;;;3.00;2.50;;;27.20;99.90;;;;;;5020839;28;20504;-50
2021/07/12 06:05:33;;;;;;;2.30;2.10;;;27.10;99.90;;;;;;5013313;28;20500;-50
2021/07/12 06:08:01;;;;;;;3.10;2.77;;;27.20;99.90;;;;;;5012484;28;20487;-50
2021/07/12 06:10:28;;;;;;;2.50;2.30;;;27.30;99.90;;;;;;5013354;28;20449;-50
2021/07/12 06:12:55;;;;;;;5.17;2.33;;;27.20;99.90;;;;;;5020073;28;20448;-49
2021/07/12 06:15:22;;;;;;;2.60;2.40;;;27.50;99.90;;;;;;5011624;28;20450;-50
2021/07/12 06:17:51;;;;;;;2.40;2.20;;;27.60;99.90;;;;;;5011590;28;20208;-50
2021/07/12 06:20:19;;;;;;;2.43;2.00;;;26.60;99.90;;;;;;5031683;28;20459;-51
2021/07/12 06:22:48;;;;;;;2.80;2.60;;;26.60;99.90;;;;;;5050301;28;20458;-50
2021/07/12 06:25:16;;;;;;;3.03;2.27;;;26.10;99.90;;;;;;5037461;28;20529;-51
2021/07/12 06:27:44;;;;;;;3.10;2.47;;;26.10;99.90;;;;;;5020081;28;20523;-50
2021/07/12 06:30:12;;;;;;;2.90;2.70;;;25.90;99.90;;;;;;5029993;28;20464;-50
2021/07/12 06:32:39;;;;;;;2.63;2.43;;;26.00;99.90;;;;;;5024508;28;20956;-52
2021/07/12 06:35:07;;;;;;;2.60;2.40;;;25.90;99.90;;;;;;5028617;28;20439;-51
2021/07/12 06:37:35;;;;;;;2.53;2.33;;;26.40;99.90;;;;;;5021576;28;20457;-51
2021/07/12 06:40:03;;;;;;;3.47;2.67;;;27.20;99.90;;;;;;5013077;28;20481;-51
2021/07/12 06:42:30;;;;;;;3.50;2.40;;;27.60;99.90;;;;;;5015242;28;21016;-51
2021/07/12 06:44:58;;;;;;;3.10;2.70;;;27.60;99.90;;;;;;5015298;28;20538;-50
2021/07/12 06:47:26;;;;;;;2.60;2.40;;;28.00;99.90;;;;;;5015294;28;20560;-50
2021/07/12 06:49:53;;;;;;;2.50;2.30;;;28.50;99.90;;;;;;5015436;28;20585;-52
2021/07/12 06:52:20;;;;;;;2.60;2.40;;;28.30;99.90;;;;;;5015163;28;20560;-51
2021/07/12 06:54:49;;;;;;;3.60;2.50;;;28.30;99.90;;;;;;5016323;28;20963;-50
2021/07/12 06:57:16;;;;;;;2.20;2.10;;;28.30;99.90;;;;;;5015059;28;20535;-51
2021/07/12 06:59:44;;;;;;;2.53;2.33;;;28.40;99.90;;;;;;5015519;28;20457;-50
2021/07/12 07:02:12;;;;;;;2.23;2.03;;;28.60;99.90;;;;;;5015077;28;20448;-51
2021/07/12 07:04:41;;;;;;;2.93;2.50;;;28.60;99.90;;;;;;5015006;28;20837;-50
2021/07/12 07:07:08;;;;;;;2.30;2.20;;;29.00;99.90;;;;;;5015052;28;20477;-52
2021/07/12 07:09:35;;;;;;;2.63;2.33;;;29.40;99.90;;;;;;5016063;28;20449;-53
2021/07/12 07:12:08;;;;;;;2.17;2.07;;;29.60;99.90;;;;;;5027720;28;20475;-52
2021/07/12 07:14:35;;;;;;;2.50;2.30;;;29.70;99.90;;;;;;5032227;28;20824;-53
2021/07/12 07:17:05;;;;;;;5.60;2.40;;;30.00;99.90;;;;;;5028752;28;20468;-53
2021/07/12 07:19:32;;;;;;;6.70;2.13;;;29.40;99.90;;;;;;5015033;28;20619;-51
2021/07/12 07:22:02;;;;;;;2.70;2.50;;;29.40;99.90;;;;;;5015603;28;20507;-51
2021/07/12 07:24:29;;;;;;;2.50;2.30;;;29.60;99.90;;;;;;5014567;28;20994;-51
2021/07/12 07:26:56;;;;;;;2.87;2.67;;;29.60;99.90;;;;;;5014592;28;20473;-52
2021/07/12 07:29:25;;;;;;;2.93;2.60;;;29.20;99.90;;;;;;5014950;28;20499;-53
2021/07/12 07:31:52;;;;;;;2.60;2.27;;;29.00;99.90;;;;;;5026387;28;20448;-51
2021/07/12 07:34:19;;;;;;;3.00;2.80;;;29.30;99.90;;;;;;5034597;28;20419;-52
2021/07/12 07:36:46;;;;;;;3.50;2.80;;;29.10;99.90;;;;;;5020090;28;20527;-51
2021/07/12 07:39:13;;;;;;;2.87;2.60;;;28.80;99.90;;;;;;5014495;28;20503;-53
2021/07/12 07:41:40;;;;;;;3.80;2.40;;;28.40;99.90;;;;;;5014629;28;20867;-52
2021/07/12 07:44:08;;;;;;;2.37;2.17;;;28.50;99.90;;;;;;5014175;28;21029;-52
2021/07/12 07:46:36;;;;;;;2.63;2.43;;;28.80;99.90;;;;;;5014375;28;20535;-54
2021/07/12 07:49:07;;;;;;;2.57;2.37;;;28.90;99.90;;;;;;5014516;28;20453;-53
2021/07/12 07:51:34;;;;;;;6.33;3.33;;;29.30;99.90;;;;;;5014183;28;20887;-52
2021/07/12 07:54:01;;;;;;;3.63;2.50;;;29.80;99.90;;;;;;5028766;28;20467;-54
2021/07/12 07:56:28;;;;;;;2.73;2.53;;;30.20;99.90;;;;;;5026673;28;20477;-52
2021/07/12 07:58:55;;;;;;;14.33;4.80;;;30.50;99.90;;;;;;5034220;28;20459;-53
2021/07/12 08:01:22;;;;;;;2.87;2.53;;;30.50;99.90;;;;;;5034292;28;20506;-52
2021/07/12 08:03:50;;;;;;;4.17;2.40;;;30.40;99.90;;;;;;5034009;28;20484;-53
2021/07/12 08:06:18;;;;;;;3.50;2.50;;;30.60;99.90;;;;;;5033832;28;20543;-54
2021/07/12 08:08:45;;;;;;;2.50;2.30;;;30.40;99.90;;;;;;5034078;28;20530;-53
2021/07/12 08:11:12;;;;;;;21.87;5.10;;;30.40;99.90;;;;;;5032524;28;20520;-52
2021/07/12 08:13:39;;;;;;;2.40;2.23;;;30.30;99.90;;;;;;5033763;28;20452;-53
2021/07/12 08:16:06;;;;;;;4.60;2.87;;;30.20;99.00;;;;;;5033788;28;20548;-52
2021/07/12 08:18:34;;;;;;;2.43;2.27;;;29.90;99.90;;;;;;5033682;28;20445;-52
2021/07/12 08:21:02;;;;;;;2.57;2.37;;;30.10;99.50;;;;;;5033912;28;20522;-52
2021/07/12 08:23:29;;;;;;;3.13;2.40;;;30.20;98.40;;;;;;5033350;28;20452;-53
2021/07/12 08:25:57;;;;;;;5.97;2.30;;;30.30;99.90;;;;;;5033577;28;20492;-52
2021/07/12 08:28:25;;;;;;;2.40;2.20;;;30.60;99.00;;;;;;5031927;28;20502;-54
2021/07/12 08:30:53;;;;;;;4.27;2.47;;;30.80;97.60;;;;;;5033531;28;20456;-53
2021/07/12 08:33:21;;;;;;;2.50;2.00;;;30.70;96.90;;;;;;5033340;28;20452;-53
2021/07/12 08:35:49;;;;;;;7.27;2.37;;;30.90;96.50;;;;;;5033522;28;20468;-53
2021/07/12 08:38:18;;;;;;;2.37;2.17;;;31.50;97.20;;;;;;5033710;28;20518;-55
2021/07/12 08:40:45;;;;;;;6.30;3.67;;;31.50;98.60;;;;;;5033290;28;20449;-52
2021/07/12 08:43:14;;;;;;;5.03;2.10;;;31.80;99.50;;;;;;5025724;28;20472;-53
2021/07/12 08:45:41;;;;;;;3.17;2.43;;;30.90;98.80;;;;;;5013138;28;21002;-52
2021/07/12 08:48:08;;;;;;;4.77;2.57;;;29.80;99.90;;;;;;5044890;22;21212;-59
2021/07/12 08:50:35;;;;;;;6.07;3.43;;;30.40;99.90;;;;;;5053383;28;20510;-59
2021/07/12 08:53:02;;;;;;;4.63;3.03;;;30.40;99.80;;;;;;5052526;28;20440;-60
2021/07/12 08:55:31;;;;;;;4.67;2.70;;;30.30;99.80;;;;;;5052795;28;20513;-60
2021/07/12 08:58:00;;;;;;;2.40;2.20;;;30.70;98.30;;;;;;5048491;28;20828;-59
2021/07/12 09:00:39;;;;;;;3.90;2.70;;;30.80;96.00;;;;;;5031405;28;20436;-59
2021/07/12 09:03:21;;;;;;;2.57;2.37;;;31.30;99.40;;;;;;5012676;28;20445;-59
2021/07/12 09:05:58;;;;;;;6.57;3.67;;;31.20;98.20;;;;;;5031346;28;20484;-60
2021/07/12 09:08:39;;;;;;;3.50;2.77;;;31.40;97.00;;;;;;5029361;28;20472;-59
2021/07/12 09:11:11;;;;;;;6.37;3.37;;;31.10;97.20;;;;;;5032876;28;20958;-59
2021/07/12 09:13:47;;;;;;;3.47;2.50;;;30.70;97.40;;;;;;5032357;28;20594;-60
2021/07/12 09:16:37;;;;;;;7.00;3.00;;;30.30;97.50;;;;;;5031045;28;20444;-60
2021/07/12 09:19:11;;;;;;;8.00;2.50;;;30.80;96.60;;;;;;5026015;28;20492;-60
2021/07/12 09:21:40;;;;;;;2.83;2.63;;;31.10;96.20;;;;;;5013040;28;20496;-60
2021/07/12 09:24:15;;;;;;;3.57;2.73;;;31.10;97.90;;;;;;5012664;28;20445;-59
2021/07/12 09:26:45;;;;;;;2.43;2.33;;;31.70;97.90;;;;;;5012891;28;20523;-58
2021/07/12 09:29:16;;;;;;;3.33;2.47;;;31.80;96.20;;;;;;5020915;28;20986;-58
2021/07/12 09:31:43;;;;;;;2.40;2.30;;;32.40;97.40;;;;;;5032101;28;20449;-59
2021/07/12 09:34:10;;;;;;;4.47;2.97;;;32.20;96.20;;;;;;5030016;28;20453;-58
2021/07/12 09:36:37;;;;;;;3.23;2.40;;;31.60;96.20;;;;;;5022553;28;20448;-58
2021/07/12 09:39:20;;;;;;;3.27;2.97;;;31.90;96.00;;;;;;5030938;28;20534;-57
2021/07/12 09:41:53;;;;;;;3.30;3.00;;;32.10;95.80;;;;;;5011252;28;20436;-58
2021/07/12 09:44:21;;;;;;;2.80;2.43;;;32.20;95.10;;;;;;5012521;28;20481;-58
2021/07/12 09:46:48;;;;;;;2.97;2.67;;;32.10;98.50;;;;;;5012435;28;20508;-58
2021/07/12 09:49:17;;;;;;;2.30;2.10;;;32.40;97.60;;;;;;5021914;28;21145;-58
2021/07/12 09:51:44;;;;;;;3.07;2.83;;;32.40;97.80;;;;;;5015264;28;20884;-58
2021/07/12 09:54:19;;;;;;;2.60;2.50;;;31.60;99.20;;;;;;5023234;28;20515;-58
2021/07/12 09:56:47;;;;;;;2.83;2.63;;;32.20;97.70;;;;;;5032281;28;20487;-58
2021/07/12 09:59:15;;;;;;;4.70;3.43;;;31.60;98.30;;;;;;5023468;28;20491;-60
2021/07/12 10:01:51;;;;;;;5.73;2.67;;;30.80;99.90;;;;;;5031937;28;20919;-58
2021/07/12 10:04:18;;;;;;;2.90;2.70;;;30.70;99.90;;;;;;5029912;28;20444;-58
2021/07/12 10:06:47;;;;;;;8.73;3.07;;;30.20;99.90;;;;;;5029705;28;20831;-60
2021/07/12 10:09:15;;;;;;;4.90;2.57;;;30.70;99.90;;;;;;5023614;28;20473;-58
2021/07/12 10:11:43;;;;;;;2.93;2.73;;;30.70;99.90;;;;;;5016142;28;20449;-58
2021/07/12 10:14:10;;;;;;;3.13;2.73;;;29.10;99.90;;;;;;5031784;28;20445;-57
2021/07/12 10:16:39;;;;;;;2.47;2.37;;;28.90;99.90;;;;;;5028672;28;20464;-57
2021/07/12 10:19:07;;;;;;;2.80;2.60;;;28.70;99.90;;;;;;5028154;28;20551;-59
2021/07/12 10:21:40;;;;;;;2.93;2.73;;;29.30;99.90;;;;;;5030724;28;20452;-59
2021/07/12 10:24:08;;;;;;;3.03;2.70;;;29.60;99.90;;;;;;5031502;28;20498;-60
2021/07/12 10:26:49;;;;;;;2.50;2.40;;;30.00;99.50;;;;;;5030643;28;20480;-59
2021/07/12 10:29:18;;;;;;;3.07;2.70;;;30.30;98.40;;;;;;5012797;28;20478;-59
2021/07/12 10:32:07;;;;;;;2.70;2.50;;;30.60;97.70;;;;;;5027030;28;20449;-60
2021/07/12 10:34:37;;;;;;;3.30;2.90;;;30.40;99.20;;;;;;5014377;28;20450;-58
2021/07/12 10:37:09;;;;;;;3.30;3.00;;;31.00;99.50;;;;;;5039643;28;20456;-59
2021/07/12 10:40:14;;;;;;;2.93;2.73;;;30.70;97.70;;;;;;5031935;28;20850;-60
2021/07/12 10:42:51;;;;;;;3.70;2.80;;;31.30;96.50;;;;;;5028901;28;20457;-60
2021/07/12 10:45:20;;;;;;;2.90;2.70;;;31.90;98.60;;;;;;5022902;28;20481;-60
2021/07/12 10:47:51;;;;;;;2.80;2.53;;;31.30;99.30;;;;;;5011317;28;20458;-60
2021/07/12 10:50:52;;;;;;;3.23;2.80;;;30.30;98.80;;;;;;5011670;28;20515;-60
2021/07/12 10:54:07;;;;;;;2.90;2.70;;;30.20;99.90;;;;;;4959960;28;20442;-59
2021/07/12 10:56:45;;;;;;;3.30;2.60;;;30.60;98.60;;;;;;4966811;28;20462;-60
2021/07/12 10:59:26;;;;;;;3.30;3.00;;;29.80;99.90;;;;;;5021616;28;20461;-58
2021/07/12 11:01:54;;;;;;;2.67;2.53;;;29.60;99.90;;;;;;5011464;28;21049;-60
2021/07/12 11:04:37;;;;;;;2.90;2.70;;;29.70;99.90;;;;;;5019100;28;20507;-60
2021/07/12 11:07:07;;;;;;;2.87;2.67;;;29.70;99.90;;;;;;5031222;28;20449;-59
2021/07/12 11:09:56;;;;;;;3.57;2.53;;;29.90;99.90;;;;;;5030891;28;20534;-59
2021/07/12 11:12:40;;;;;;;4.17;2.70;;;30.10;99.80;;;;;;5029217;28;20452;-60
2021/07/12 11:15:34;;;;;;;2.90;2.70;;;30.00;99.90;;;;;;5031032;28;20507;-60
2021/07/12 11:18:04;;;;;;;2.70;2.50;;;30.00;99.90;;;;;;5011383;28;20469;-59
2021/07/12 11:21:02;;;;;;;3.20;3.00;;;29.30;99.90;;;;;;5011733;28;20453;-59
2021/07/12 11:23:52;;;;;;;3.73;3.43;;;29.40;99.90;;;;;;5011304;28;20458;-59
2021/07/12 11:26:54;;;;;;;3.10;2.60;;;29.20;99.90;;;;;;5013081;28;20834;-57
2021/07/12 11:29:42;;;;;;;4.80;2.70;;;29.00;99.90;;;;;;5014938;28;20465;-59
2021/07/12 11:32:14;;;;;;;5.30;3.33;;;29.40;99.90;;;;;;5014723;28;20875;-57
2021/07/12 11:34:47;;;;;;;3.00;2.60;;;28.80;99.90;;;;;;5015032;28;20458;-56
2021/07/12 11:37:17;;;;;;;2.60;2.40;;;28.80;99.90;;;;;;5019223;28;20971;-60
2021/07/12 11:39:46;;;;;;;2.80;2.63;;;28.90;99.90;;;;;;5024663;28;20539;-59
2021/07/12 11:42:16;;;;;;;2.63;2.43;;;29.20;99.90;;;;;;5021938;28;20453;-59
2021/07/12 11:44:47;;;;;;;2.90;2.70;;;28.90;99.90;;;;;;5018803;28;20810;-59
2021/07/12 11:47:18;;;;;;;2.80;2.60;;;28.50;99.90;;;;;;5032396;28;20449;-59
2021/07/12 11:49:53;;;;;;;2.80;2.60;;;28.20;99.90;;;;;;5033268;28;20904;-56
2021/07/12 11:52:23;;;;;;;2.57;2.40;;;27.70;99.90;;;;;;5015450;28;20457;-56
2021/07/12 11:54:57;;;;;;;2.90;2.70;;;28.00;99.90;;;;;;5014535;28;20449;-56
2021/07/12 11:57:24;;;;;;;3.13;2.67;;;28.20;99.90;;;;;;5015596;28;20488;-56
2021/07/12 11:59:51;;;;;;;2.80;2.60;;;27.80;99.90;;;;;;5014553;28;20519;-57
2021/07/12 12:02:18;;;;;;;3.03;2.83;;;27.40;99.90;;;;;;5015687;28;20450;-56
2021/07/12 12:04:51;;;;;;;2.53;2.33;;;27.10;99.90;;;;;;5028661;28;20495;-57
2021/07/12 12:07:25;;;;;;;2.80;2.60;;;27.20;99.90;;;;;;5014355;28;20450;-57
2021/07/12 12:09:53;;;;;;;2.70;2.50;;;27.20;99.90;;;;;;5020826;28;20890;-57
2021/07/12 12:12:25;;;;;;;2.70;2.50;;;27.40;99.90;;;;;;5032222;28;20453;-57
2021/07/12 12:14:59;;;;;;;2.90;2.70;;;27.30;99.90;;;;;;5033869;28;20934;-57
2021/07/12 12:17:26;;;;;;;2.70;2.50;;;27.40;99.90;;;;;;5018816;28;20449;-57
2021/07/12 12:20:07;;;;;;;2.43;2.33;;;27.20;99.90;;;;;;5020132;28;20483;-57
2021/07/12 12:22:36;;;;;;;3.60;3.00;;;27.40;99.90;;;;;;5016752;28;20848;-57
2021/07/12 12:25:06;;;;;;;2.83;2.53;;;27.50;99.90;;;;;;5033550;28;20453;-57
2021/07/12 12:27:37;;;;;;;2.67;2.47;;;27.40;99.90;;;;;;5031979;28;20490;-57
2021/07/12 12:30:07;;;;;;;2.90;2.50;;;27.60;99.90;;;;;;5025701;28;20446;-57
2021/07/12 12:32:35;;;;;;;2.97;2.77;;;27.60;99.90;;;;;;5016888;28;20442;-57
2021/07/12 12:35:05;;;;;;;2.77;2.57;;;27.60;99.90;;;;;;5024201;28;20955;-57
2021/07/12 12:37:38;;;;;;;3.67;2.67;;;27.40;99.90;;;;;;5023256;28;20495;-57
2021/07/12 12:40:19;;;;;;;2.57;2.37;;;27.40;99.90;;;;;;5030262;28;20958;-57
2021/07/12 12:42:46;;;;;;;3.23;2.93;;;27.40;99.90;;;;;;5033003;28;20448;-58
2021/07/12 12:45:23;;;;;;;2.97;2.67;;;27.40;99.90;;;;;;5028841;28;20509;-57
2021/07/12 12:47:50;;;;;;;2.40;2.30;;;27.40;99.90;;;;;;5013438;28;20446;-57
2021/07/12 12:50:19;;;;;;;2.73;2.53;;;27.40;99.90;;;;;;5020411;28;20448;-57
2021/07/12 12:52:48;;;;;;;2.60;2.40;;;27.40;99.90;;;;;;5033044;28;20519;-57
2021/07/12 12:55:15;;;;;;;2.40;2.17;;;27.40;99.90;;;;;;5031749;28;20483;-57
2021/07/12 12:57:47;;;;;;;2.30;2.20;;;27.60;99.90;;;;;;5013039;28;20512;-57
2021/07/12 13:00:17;;;;;;;2.93;2.50;;;27.70;99.90;;;;;;5021783;28;20448;-57
2021/07/12 13:02:45;;;;;;;2.77;2.50;;;27.80;99.90;;;;;;5032751;28;20483;-57